createdAt,value
2023-05-19T00:00:18.115Z,101506.06
2023-05-19T00:01:22.409Z,101502.28
2023-05-19T00:02:26.215Z,101508.81
2023-05-19T00:03:31.957Z,101499.44
2023-05-19T00:04:35.841Z,101504.03
2023-05-19T00:05:41.264Z,101499.00
2023-05-19T00:06:49.314Z,101501.00
2023-05-19T00:07:53.772Z,101499.28
2023-05-19T00:08:59.524Z,101501.94
2023-05-19T00:10:03.887Z,101499.66
2023-05-19T00:11:09.456Z,101494.22
2023-05-19T00:12:14.835Z,101499.47
2023-05-19T00:13:18.341Z,101489.25
2023-05-19T00:14:23.246Z,101493.69
2023-05-19T00:15:26.489Z,101500.34
2023-05-19T00:16:31.602Z,101490.81
2023-05-19T00:17:34.758Z,101488.22
2023-05-19T00:18:38.582Z,101490.34
2023-05-19T00:19:42.293Z,101488.75
2023-05-19T00:20:45.169Z,101486.66
2023-05-19T00:21:49.291Z,101488.78
2023-05-19T00:22:51.982Z,101485.59
2023-05-19T00:23:56.425Z,101487.19
2023-05-19T00:25:00.288Z,101479.72
2023-05-19T00:26:04.356Z,101485.53
2023-05-19T00:27:07.217Z,101482.84
2023-05-19T00:28:11.220Z,101483.88
2023-05-19T00:29:18.937Z,101483.22
2023-05-19T00:30:26.219Z,101481.44
2023-05-19T00:31:29.690Z,101482.09
2023-05-19T00:32:33.924Z,101482.22
2023-05-19T00:33:37.480Z,101482.63
2023-05-19T00:34:43.264Z,101477.28
2023-05-19T00:35:47.154Z,101480.91
2023-05-19T00:36:51.981Z,101479.84
2023-05-19T00:37:55.030Z,101477.69
2023-05-19T00:38:58.906Z,101473.06
2023-05-19T00:40:03.247Z,101475.09
2023-05-19T00:41:08.132Z,101467.56
2023-05-19T00:42:11.931Z,101471.47
2023-05-19T00:43:15.135Z,101469.88
2023-05-19T00:44:19.625Z,101462.50
2023-05-19T00:45:22.577Z,101468.66
2023-05-19T00:46:26.796Z,101461.78
2023-05-19T00:47:29.832Z,101457.97
2023-05-19T00:48:34.036Z,101463.13
2023-05-19T00:49:37.127Z,101460.53
2023-05-19T00:50:42.448Z,101461.66
2023-05-19T00:51:45.130Z,101454.31
2023-05-19T00:52:48.901Z,101451.31
2023-05-19T00:53:52.493Z,101453.38
2023-05-19T00:54:58.144Z,101448.41
2023-05-19T00:56:03.490Z,101446.25
2023-05-19T00:57:07.994Z,101448.22
2023-05-19T00:58:12.296Z,101445.06
2023-05-19T00:59:16.052Z,101444.91
2023-05-19T01:00:21.009Z,101445.00
2023-05-19T01:01:27.425Z,101441.88
2023-05-19T01:02:30.800Z,101441.25
2023-05-19T01:03:36.332Z,101442.44
2023-05-19T01:04:42.121Z,101442.19
2023-05-19T01:05:48.040Z,101443.66
2023-05-19T01:06:55.303Z,101443.38
2023-05-19T01:07:59.149Z,101435.66
2023-05-19T01:09:02.235Z,101441.50
2023-05-19T01:10:07.303Z,101442.38
2023-05-19T01:11:11.514Z,101438.00
2023-05-19T01:12:15.142Z,101445.41
2023-05-19T01:13:18.450Z,101442.44
2023-05-19T01:14:23.104Z,101443.38
2023-05-19T01:15:28.164Z,101437.34
2023-05-19T01:16:37.021Z,101445.34
2023-05-19T01:17:47.480Z,101435.16
2023-05-19T01:19:05.790Z,101435.47
2023-05-19T01:20:16.990Z,101432.91
2023-05-19T01:22:03.747Z,101439.22
2023-05-19T01:23:30.869Z,101436.94
2023-05-19T01:25:07.243Z,101437.16
2023-05-19T01:26:44.426Z,101436.03
2023-05-19T01:28:32.054Z,101433.16
2023-05-19T01:29:50.066Z,101431.16
2023-05-19T01:30:57.871Z,101426.97
2023-05-19T01:32:04.540Z,101429.84
2023-05-19T01:33:13.662Z,101425.16
2023-05-19T01:34:21.606Z,101424.84
2023-05-19T01:35:27.464Z,101421.59
2023-05-19T01:36:32.111Z,101423.78
2023-05-19T01:37:36.876Z,101420.34
2023-05-19T01:38:40.526Z,101421.63
2023-05-19T01:39:47.395Z,101420.38
2023-05-19T01:40:51.848Z,101422.31
2023-05-19T01:41:56.800Z,101418.84
2023-05-19T01:43:02.431Z,101415.34
2023-05-19T01:44:06.866Z,101414.56
2023-05-19T01:45:10.834Z,101410.88
2023-05-19T01:46:16.828Z,101416.84
2023-05-19T01:47:20.093Z,101407.78
2023-05-19T01:48:24.802Z,101407.84
2023-05-19T01:49:27.334Z,101405.38
2023-05-19T01:50:32.231Z,101399.97
2023-05-19T01:51:36.179Z,101399.19
2023-05-19T01:52:40.186Z,101400.59
2023-05-19T01:53:44.181Z,101402.75
2023-05-19T01:54:48.695Z,101401.19
2023-05-19T01:55:55.385Z,101399.69
2023-05-19T01:57:10.333Z,101409.91
2023-05-19T01:58:21.637Z,101394.66
2023-05-19T01:59:43.855Z,101397.28
2023-05-19T02:00:53.149Z,101389.38
2023-05-19T02:02:02.295Z,101385.97
2023-05-19T02:03:14.076Z,101389.59
2023-05-19T02:04:25.199Z,101390.38
2023-05-19T02:05:35.554Z,101388.41
2023-05-19T02:06:46.337Z,101393.81
2023-05-19T02:07:57.463Z,101378.66
2023-05-19T02:09:09.505Z,101393.91
2023-05-19T02:10:19.502Z,101396.63
2023-05-19T02:11:31.382Z,101388.34
2023-05-19T02:12:36.313Z,101389.50
2023-05-19T02:13:45.156Z,101393.91
2023-05-19T02:14:53.308Z,101393.84
2023-05-19T02:16:02.012Z,101390.88
2023-05-19T02:17:06.437Z,101387.09
2023-05-19T02:18:11.928Z,101392.22
2023-05-19T02:19:26.316Z,101383.03
2023-05-19T02:20:30.737Z,101380.28
2023-05-19T02:21:33.588Z,101383.53
2023-05-19T02:22:37.762Z,101380.09
2023-05-19T02:23:41.385Z,101382.59
2023-05-19T02:24:46.716Z,101379.88
2023-05-19T02:25:50.120Z,101381.78
2023-05-19T02:26:55.182Z,101379.94
2023-05-19T02:27:59.189Z,101383.25
2023-05-19T02:29:03.510Z,101380.50
2023-05-19T02:30:09.203Z,101378.75
2023-05-19T02:31:13.177Z,101384.09
2023-05-19T02:32:17.775Z,101384.94
2023-05-19T02:33:24.821Z,101379.19
2023-05-19T02:34:27.485Z,101382.38
2023-05-19T02:35:31.493Z,101378.44
2023-05-19T02:36:35.491Z,101375.75
2023-05-19T02:37:40.003Z,101375.47
2023-05-19T02:38:43.904Z,101377.75
2023-05-19T02:39:46.518Z,101378.81
2023-05-19T02:40:50.225Z,101372.78
2023-05-19T02:41:53.305Z,101376.94
2023-05-19T02:42:57.211Z,101372.00
2023-05-19T02:44:00.143Z,101375.97
2023-05-19T02:45:04.070Z,101369.63
2023-05-19T02:46:07.874Z,101372.56
2023-05-19T02:47:12.109Z,101368.66
2023-05-19T02:48:18.370Z,101368.94
2023-05-19T02:49:22.474Z,101361.56
2023-05-19T02:50:25.338Z,101371.38
2023-05-19T02:51:29.154Z,101366.13
2023-05-19T02:52:32.384Z,101365.06
2023-05-19T02:53:36.172Z,101365.03
2023-05-19T02:54:38.771Z,101368.78
2023-05-19T02:55:42.522Z,101369.06
2023-05-19T02:56:45.251Z,101367.75
2023-05-19T02:57:49.227Z,101370.41
2023-05-19T02:58:53.732Z,101371.50
2023-05-19T02:59:58.026Z,101367.47
2023-05-19T03:01:01.102Z,101366.78
2023-05-19T03:02:05.224Z,101358.16
2023-05-19T03:03:10.612Z,101360.31
2023-05-19T03:04:16.153Z,101350.56
2023-05-19T03:05:20.448Z,101358.22
2023-05-19T03:06:24.853Z,101356.34
2023-05-19T03:07:27.403Z,101352.84
2023-05-19T03:08:31.370Z,101359.44
2023-05-19T03:09:33.863Z,101354.09
2023-05-19T03:10:37.827Z,101357.50
2023-05-19T03:11:40.688Z,101354.59
2023-05-19T03:12:45.202Z,101357.22
2023-05-19T03:13:48.303Z,101356.91
2023-05-19T03:14:52.485Z,101359.19
2023-05-19T03:15:57.241Z,101356.38
2023-05-19T03:17:01.447Z,101360.75
2023-05-19T03:18:05.350Z,101359.69
2023-05-19T03:19:09.707Z,101353.59
2023-05-19T03:20:16.035Z,101349.63
2023-05-19T03:21:20.304Z,101349.81
2023-05-19T03:22:24.128Z,101355.75
2023-05-19T03:23:26.921Z,101356.81
2023-05-19T03:24:30.799Z,101358.66
2023-05-19T03:25:34.088Z,101349.88
2023-05-19T03:26:38.320Z,101349.53
2023-05-19T03:27:41.479Z,101354.44
2023-05-19T03:28:45.420Z,101353.75
2023-05-19T03:29:48.001Z,101356.63
2023-05-19T03:30:52.078Z,101348.28
2023-05-19T03:31:54.761Z,101347.47
2023-05-19T03:32:58.707Z,101349.28
2023-05-19T03:34:02.156Z,101343.75
2023-05-19T03:35:06.372Z,101340.69
2023-05-19T03:36:10.576Z,101347.38
2023-05-19T03:37:14.274Z,101345.81
2023-05-19T03:38:17.040Z,101339.63
2023-05-19T03:39:20.949Z,101338.50
2023-05-19T03:40:23.381Z,101347.44
2023-05-19T03:41:27.105Z,101337.44
2023-05-19T03:42:30.156Z,101339.31
2023-05-19T03:43:34.060Z,101334.19
2023-05-19T03:44:36.811Z,101330.16
2023-05-19T03:45:41.066Z,101333.31
2023-05-19T03:46:43.905Z,101332.91
2023-05-19T03:47:48.149Z,101331.97
2023-05-19T03:48:51.166Z,101328.97
2023-05-19T03:49:55.251Z,101326.38
2023-05-19T03:50:58.362Z,101334.22
2023-05-19T03:52:03.569Z,101321.13
2023-05-19T03:53:06.529Z,101328.81
2023-05-19T03:54:10.699Z,101324.34
2023-05-19T03:55:14.978Z,101322.78
2023-05-19T03:56:23.964Z,101323.53
2023-05-19T03:57:27.175Z,101320.63
2023-05-19T03:58:31.484Z,101323.56
2023-05-19T03:59:35.575Z,101327.63
2023-05-19T04:00:39.225Z,101322.66
2023-05-19T04:01:41.855Z,101323.75
2023-05-19T04:02:46.289Z,101327.25
2023-05-19T04:03:49.113Z,101326.13
2023-05-19T04:04:52.910Z,101323.56
2023-05-19T04:05:55.814Z,101321.00
2023-05-19T04:06:59.797Z,101320.09
2023-05-19T04:08:04.418Z,101328.66
2023-05-19T04:09:14.980Z,101325.00
2023-05-19T04:10:18.026Z,101325.91
2023-05-19T04:11:21.934Z,101319.63
2023-05-19T04:12:24.614Z,101325.53
2023-05-19T04:13:28.190Z,101316.66
2023-05-19T04:14:30.595Z,101322.69
2023-05-19T04:15:34.133Z,101318.75
2023-05-19T04:16:36.804Z,101317.47
2023-05-19T04:17:41.076Z,101320.19
2023-05-19T04:18:46.606Z,101316.09
2023-05-19T04:19:50.276Z,101319.25
2023-05-19T04:20:53.004Z,101321.59
2023-05-19T04:21:57.529Z,101313.97
2023-05-19T04:23:00.700Z,101306.63
2023-05-19T04:24:06.807Z,101308.63
2023-05-19T04:25:11.603Z,101316.63
2023-05-19T04:26:16.916Z,101312.91
2023-05-19T04:27:22.667Z,101303.25
2023-05-19T04:28:26.368Z,101314.91
2023-05-19T04:29:30.082Z,101312.13
2023-05-19T04:30:34.786Z,101305.94
2023-05-19T04:31:37.952Z,101317.72
2023-05-19T04:32:42.468Z,101315.28
2023-05-19T04:33:45.223Z,101306.72
2023-05-19T04:34:48.845Z,101312.75
2023-05-19T04:35:51.987Z,101307.84
2023-05-19T04:36:56.046Z,101314.56
2023-05-19T04:37:58.980Z,101305.91
2023-05-19T04:39:06.569Z,101308.25
2023-05-19T04:40:12.645Z,101309.91
2023-05-19T04:41:16.710Z,101310.19
2023-05-19T04:42:19.681Z,101313.56
2023-05-19T04:43:23.467Z,101313.03
2023-05-19T04:44:26.540Z,101304.72
2023-05-19T04:45:30.345Z,101314.19
2023-05-19T04:46:34.059Z,101307.47
2023-05-19T04:47:38.560Z,101305.72
2023-05-19T04:48:41.813Z,101306.78
2023-05-19T04:49:46.183Z,101308.75
2023-05-19T04:50:49.121Z,101311.31
2023-05-19T04:51:55.499Z,101303.88
2023-05-19T04:52:59.430Z,101303.31
2023-05-19T04:54:04.392Z,101296.94
2023-05-19T04:55:07.996Z,101303.63
2023-05-19T04:56:15.624Z,101304.66
2023-05-19T04:57:21.571Z,101304.44
2023-05-19T04:58:26.037Z,101303.31
2023-05-19T04:59:30.027Z,101303.13
2023-05-19T05:00:36.081Z,101302.94
2023-05-19T05:01:41.174Z,101303.22
2023-05-19T05:02:44.268Z,101299.22
2023-05-19T05:03:48.418Z,101306.19
2023-05-19T05:04:54.750Z,101302.72
2023-05-19T05:05:58.871Z,101302.66
2023-05-19T05:07:02.637Z,101302.69
2023-05-19T05:08:05.204Z,101309.53
2023-05-19T05:09:09.016Z,101309.16
2023-05-19T05:10:11.909Z,101305.13
2023-05-19T05:11:18.031Z,101305.44
2023-05-19T05:12:22.675Z,101302.84
2023-05-19T05:13:27.573Z,101311.56
2023-05-19T05:14:30.760Z,101310.13
2023-05-19T05:15:36.006Z,101313.75
2023-05-19T05:16:39.185Z,101303.63
2023-05-19T05:17:44.030Z,101309.81
2023-05-19T05:18:47.397Z,101302.06
2023-05-19T05:19:52.108Z,101308.91
2023-05-19T05:20:55.499Z,101309.25
2023-05-19T05:21:59.909Z,101311.69
2023-05-19T05:23:03.284Z,101315.66
2023-05-19T05:24:08.497Z,101317.94
2023-05-19T05:25:12.801Z,101312.66
2023-05-19T05:26:20.645Z,101310.63
2023-05-19T05:27:23.710Z,101313.59
2023-05-19T05:28:27.775Z,101316.16
2023-05-19T05:29:30.430Z,101308.13
2023-05-19T05:30:35.698Z,101317.09
2023-05-19T05:31:38.876Z,101308.94
2023-05-19T05:32:43.153Z,101319.09
2023-05-19T05:33:46.597Z,101318.16
2023-05-19T05:34:51.090Z,101312.47
2023-05-19T05:35:53.945Z,101318.66
2023-05-19T05:36:58.122Z,101313.13
2023-05-19T05:38:01.882Z,101312.25
2023-05-19T05:39:05.929Z,101313.50
2023-05-19T05:40:09.922Z,101318.59
2023-05-19T05:41:13.925Z,101312.19
2023-05-19T05:42:18.624Z,101316.94
2023-05-19T05:43:22.942Z,101316.41
2023-05-19T05:44:26.081Z,101322.19
2023-05-19T05:45:30.205Z,101316.38
2023-05-19T05:46:34.496Z,101319.22
2023-05-19T05:47:38.633Z,101318.00
2023-05-19T05:48:43.060Z,101308.78
2023-05-19T05:49:48.928Z,101310.38
2023-05-19T05:50:53.533Z,101313.16
2023-05-19T05:52:05.529Z,101312.03
2023-05-19T05:53:17.089Z,101309.22
2023-05-19T05:54:25.107Z,101306.34
2023-05-19T05:55:28.707Z,101303.50
2023-05-19T05:56:34.806Z,101304.19
2023-05-19T05:57:42.106Z,101313.03
2023-05-19T05:58:45.877Z,101304.72
2023-05-19T05:59:51.524Z,101308.97
2023-05-19T06:01:01.471Z,101314.25
2023-05-19T06:02:08.742Z,101313.03
2023-05-19T06:03:11.854Z,101313.78
2023-05-19T06:04:16.372Z,101314.25
2023-05-19T06:05:19.908Z,101320.59
2023-05-19T06:06:26.098Z,101313.56
2023-05-19T06:07:29.196Z,101321.41
2023-05-19T06:08:33.415Z,101322.53
2023-05-19T06:09:36.328Z,101323.66
2023-05-19T06:10:41.990Z,101319.78
2023-05-19T06:11:45.260Z,101326.13
2023-05-19T06:12:51.146Z,101317.75
2023-05-19T06:13:54.643Z,101318.16
2023-05-19T06:14:57.548Z,101325.03
2023-05-19T06:16:02.221Z,101323.59
2023-05-19T06:17:05.247Z,101317.53
2023-05-19T06:18:08.852Z,101328.31
2023-05-19T06:19:11.438Z,101324.97
2023-05-19T06:20:16.626Z,101327.91
2023-05-19T06:21:22.131Z,101315.59
2023-05-19T06:22:24.830Z,101318.22
2023-05-19T06:23:29.378Z,101317.75
2023-05-19T06:24:33.275Z,101325.84
2023-05-19T06:25:35.925Z,101329.75
2023-05-19T06:26:39.440Z,101322.75
2023-05-19T06:27:42.328Z,101321.63
2023-05-19T06:28:47.522Z,101321.19
2023-05-19T06:29:50.149Z,101316.81
2023-05-19T06:30:54.363Z,101324.53
2023-05-19T06:31:58.292Z,101318.75
2023-05-19T06:33:01.039Z,101321.94
2023-05-19T06:34:04.987Z,101319.88
2023-05-19T06:35:08.075Z,101318.28
2023-05-19T06:36:12.098Z,101317.25
2023-05-19T06:37:19.736Z,101323.91
2023-05-19T06:38:23.302Z,101323.09
2023-05-19T06:39:26.612Z,101327.88
2023-05-19T06:40:30.502Z,101320.50
2023-05-19T06:41:34.785Z,101328.97
2023-05-19T06:42:38.665Z,101313.81
2023-05-19T06:43:43.015Z,101326.19
2023-05-19T06:44:47.547Z,101326.50
2023-05-19T06:45:51.536Z,101320.75
2023-05-19T06:46:54.759Z,101329.72
2023-05-19T06:47:59.602Z,101327.38
2023-05-19T06:49:02.388Z,101335.06
2023-05-19T06:50:06.678Z,101326.34
2023-05-19T06:51:10.514Z,101331.31
2023-05-19T06:52:14.470Z,101328.97
2023-05-19T06:53:17.580Z,101328.19
2023-05-19T06:54:21.279Z,101328.47
2023-05-19T06:55:25.324Z,101332.97
2023-05-19T06:56:27.789Z,101333.72
2023-05-19T06:57:31.580Z,101332.41
2023-05-19T06:58:34.178Z,101334.00
2023-05-19T06:59:40.996Z,101333.72
2023-05-19T07:00:45.380Z,101337.16
2023-05-19T07:01:49.157Z,101337.44
2023-05-19T07:02:52.159Z,101339.81
2023-05-19T07:03:56.154Z,101339.03
2023-05-19T07:04:58.942Z,101336.38
2023-05-19T07:06:05.030Z,101343.53
2023-05-19T07:07:09.294Z,101337.44
2023-05-19T07:08:12.786Z,101335.84
2023-05-19T07:09:15.478Z,101345.63
2023-05-19T07:10:19.410Z,101330.56
2023-05-19T07:11:22.099Z,101344.31
2023-05-19T07:12:27.017Z,101339.00
2023-05-19T07:13:30.901Z,101338.22
2023-05-19T07:14:34.395Z,101340.81
2023-05-19T07:15:38.159Z,101340.00
2023-05-19T07:16:42.277Z,101341.91
2023-05-19T07:17:46.808Z,101338.47
2023-05-19T07:18:50.815Z,101334.19
2023-05-19T07:19:55.920Z,101334.97
2023-05-19T07:21:01.196Z,101333.69
2023-05-19T07:22:05.919Z,101336.81
2023-05-19T07:23:08.943Z,101337.34
2023-05-19T07:24:12.551Z,101326.22
2023-05-19T07:25:15.219Z,101328.88
2023-05-19T07:26:19.133Z,101337.88
2023-05-19T07:27:22.015Z,101329.03
2023-05-19T07:28:26.114Z,101315.75
2023-05-19T07:29:29.000Z,101319.19
2023-05-19T07:30:33.297Z,101329.97
2023-05-19T07:31:37.422Z,101332.28
2023-05-19T07:32:41.638Z,101326.81
2023-05-19T07:33:45.295Z,101327.69
2023-05-19T07:34:47.986Z,101328.16
2023-05-19T07:35:51.670Z,101325.13
2023-05-19T07:36:55.386Z,101324.97
2023-05-19T07:37:58.052Z,101322.28
2023-05-19T07:39:01.774Z,101318.69
2023-05-19T07:40:06.985Z,101322.34
2023-05-19T07:41:10.403Z,101325.16
2023-05-19T07:42:14.280Z,101315.19
2023-05-19T07:43:17.273Z,101321.81
2023-05-19T07:44:21.177Z,101319.50
2023-05-19T07:45:24.995Z,101317.06
2023-05-19T07:46:29.036Z,101321.66
2023-05-19T07:47:32.093Z,101316.41
2023-05-19T07:48:37.208Z,101313.63
2023-05-19T07:49:40.981Z,101319.59
2023-05-19T07:50:43.679Z,101316.25
2023-05-19T07:51:47.687Z,101317.16
2023-05-19T07:52:51.854Z,101307.31
2023-05-19T07:53:55.672Z,101305.16
2023-05-19T07:55:00.993Z,101308.19
2023-05-19T07:56:04.151Z,101302.63
2023-05-19T07:57:07.951Z,101302.63
2023-05-19T07:58:11.771Z,101307.13
2023-05-19T07:59:15.456Z,101304.09
2023-05-19T08:00:21.195Z,101297.34
2023-05-19T08:01:26.523Z,101306.59
2023-05-19T08:02:30.407Z,101305.06
2023-05-19T08:03:33.733Z,101302.38
2023-05-19T08:04:39.379Z,101288.91
2023-05-19T08:05:42.210Z,101296.06
2023-05-19T08:06:45.767Z,101291.69
2023-05-19T08:07:49.197Z,101302.88
2023-05-19T08:08:54.517Z,101292.41
2023-05-19T08:09:57.413Z,101296.50
2023-05-19T08:11:04.485Z,101304.97
2023-05-19T08:12:08.327Z,101302.72
2023-05-19T08:13:11.142Z,101300.75
2023-05-19T08:14:15.939Z,101311.69
2023-05-19T08:15:19.231Z,101301.81
2023-05-19T08:16:22.712Z,101306.38
2023-05-19T08:17:25.179Z,101304.47
2023-05-19T08:18:28.719Z,101309.22
2023-05-19T08:19:32.264Z,101304.78
2023-05-19T08:20:37.134Z,101310.78
2023-05-19T08:21:42.367Z,101307.34
2023-05-19T08:22:44.663Z,101308.19
2023-05-19T08:23:48.083Z,101315.72
2023-05-19T08:24:51.953Z,101315.19
2023-05-19T08:25:55.439Z,101313.19
2023-05-19T08:26:59.035Z,101316.38
2023-05-19T08:28:01.898Z,101320.94
2023-05-19T08:29:05.299Z,101319.38
2023-05-19T08:30:10.125Z,101314.38
2023-05-19T08:31:12.570Z,101318.94
2023-05-19T08:32:17.523Z,101317.78
2023-05-19T08:33:21.757Z,101321.63
2023-05-19T08:34:25.426Z,101320.13
2023-05-19T08:35:27.890Z,101313.47
2023-05-19T08:36:34.143Z,101323.25
2023-05-19T08:37:38.367Z,101321.91
2023-05-19T08:38:41.826Z,101323.16
2023-05-19T08:39:45.655Z,101319.72
2023-05-19T08:40:50.143Z,101321.91
2023-05-19T08:41:53.407Z,101322.75
2023-05-19T08:42:57.152Z,101317.84
2023-05-19T08:44:01.154Z,101333.31
2023-05-19T08:45:04.704Z,101319.59
2023-05-19T08:46:08.455Z,101323.09
2023-05-19T08:47:14.243Z,101324.38
2023-05-19T08:48:20.212Z,101321.03
2023-05-19T08:49:28.040Z,101318.81
2023-05-19T08:50:33.602Z,101319.03
2023-05-19T08:51:46.628Z,101321.91
2023-05-19T08:52:53.680Z,101322.25
2023-05-19T08:54:06.706Z,101324.25
2023-05-19T08:55:14.012Z,101323.72
2023-05-19T08:56:22.714Z,101325.50
2023-05-19T08:57:26.029Z,101324.69
2023-05-19T08:58:30.581Z,101326.81
2023-05-19T08:59:35.281Z,101324.75
2023-05-19T09:00:38.098Z,101329.81
2023-05-19T09:01:43.174Z,101330.00
2023-05-19T09:02:59.826Z,101327.66
2023-05-19T09:04:05.896Z,101333.44
2023-05-19T09:05:09.825Z,101334.53
2023-05-19T09:06:14.218Z,101341.28
2023-05-19T09:07:21.528Z,101343.88
2023-05-19T09:08:24.183Z,101341.69
2023-05-19T09:09:28.363Z,101333.00
2023-05-19T09:10:33.428Z,101338.25
2023-05-19T09:11:38.039Z,101335.75
2023-05-19T09:12:40.997Z,101336.56
2023-05-19T09:13:45.180Z,101329.16
2023-05-19T09:14:49.445Z,101336.53
2023-05-19T09:15:54.236Z,101335.13
2023-05-19T09:16:58.015Z,101340.63
2023-05-19T09:18:11.555Z,101337.16
2023-05-19T09:19:16.854Z,101333.72
2023-05-19T09:20:19.656Z,101334.84
2023-05-19T09:21:31.364Z,101330.81
2023-05-19T09:22:41.004Z,101333.00
2023-05-19T09:23:49.009Z,101333.00
2023-05-19T09:24:53.906Z,101337.53
2023-05-19T09:25:58.581Z,101334.66
2023-05-19T09:27:02.584Z,101328.06
2023-05-19T09:28:05.447Z,101330.44
2023-05-19T09:29:15.910Z,101336.75
2023-05-19T09:30:20.702Z,101333.06
2023-05-19T09:31:24.463Z,101333.34
2023-05-19T09:32:28.172Z,101334.66
2023-05-19T09:33:34.003Z,101334.63
2023-05-19T09:34:42.410Z,101334.06
2023-05-19T09:35:48.969Z,101335.19
2023-05-19T09:36:53.661Z,101329.06
2023-05-19T09:37:58.295Z,101327.28
2023-05-19T09:39:02.346Z,101330.47
2023-05-19T09:40:06.511Z,101325.16
2023-05-19T09:41:10.705Z,101333.59
2023-05-19T09:42:14.835Z,101330.34
2023-05-19T09:43:18.807Z,101333.50
2023-05-19T09:44:29.218Z,101329.75
2023-05-19T09:45:33.519Z,101338.91
2023-05-19T09:46:37.032Z,101332.19
2023-05-19T09:47:42.391Z,101335.53
2023-05-19T09:48:46.073Z,101334.03
2023-05-19T09:49:48.993Z,101334.00
2023-05-19T09:50:53.667Z,101334.59
2023-05-19T09:51:58.128Z,101346.56
2023-05-19T09:53:03.792Z,101336.56
2023-05-19T09:54:06.615Z,101337.13
2023-05-19T09:55:12.175Z,101337.44
2023-05-19T09:56:15.642Z,101347.72
2023-05-19T09:57:20.146Z,101341.09
2023-05-19T09:58:25.009Z,101346.50
2023-05-19T09:59:33.521Z,101341.69
2023-05-19T10:00:39.499Z,101347.19
2023-05-19T10:01:46.725Z,101348.31
2023-05-19T10:02:51.728Z,101342.50
2023-05-19T10:03:54.447Z,101343.06
2023-05-19T10:04:58.620Z,101343.22
2023-05-19T10:06:03.533Z,101346.31
2023-05-19T10:07:08.566Z,101347.75
2023-05-19T10:08:13.855Z,101340.38
2023-05-19T10:09:18.583Z,101343.63
2023-05-19T10:10:23.506Z,101347.78
2023-05-19T10:11:27.541Z,101345.06
2023-05-19T10:12:33.592Z,101348.19
2023-05-19T10:13:38.812Z,101343.19
2023-05-19T10:14:41.994Z,101341.16
2023-05-19T10:15:57.450Z,101346.31
2023-05-19T10:17:03.063Z,101345.06
2023-05-19T10:18:07.351Z,101346.09
2023-05-19T10:19:11.447Z,101337.88
2023-05-19T10:20:17.599Z,101348.84
2023-05-19T10:21:21.140Z,101347.28
2023-05-19T10:22:24.025Z,101350.19
2023-05-19T10:23:28.996Z,101353.84
2023-05-19T10:24:31.880Z,101351.22
2023-05-19T10:25:37.454Z,101356.03
2023-05-19T10:26:43.008Z,101346.72
2023-05-19T10:27:52.621Z,101352.84
2023-05-19T10:28:56.905Z,101356.06
2023-05-19T10:30:05.174Z,101352.34
2023-05-19T10:31:12.260Z,101356.53
2023-05-19T10:32:19.594Z,101350.69
2023-05-19T10:33:31.847Z,101355.34
2023-05-19T10:34:57.437Z,101361.09
2023-05-19T10:36:25.824Z,101352.78
2023-05-19T10:37:38.772Z,101354.34
2023-05-19T10:38:52.709Z,101353.66
2023-05-19T10:39:57.778Z,101358.16
2023-05-19T10:41:09.102Z,101354.50
2023-05-19T10:42:17.502Z,101351.38
2023-05-19T10:43:33.279Z,101361.31
2023-05-19T10:44:47.852Z,101352.09
2023-05-19T10:45:55.701Z,101351.84
2023-05-19T10:46:59.461Z,101350.53
2023-05-19T10:48:01.815Z,101352.69
2023-05-19T10:49:06.302Z,101350.81
2023-05-19T10:50:12.506Z,101349.78
2023-05-19T10:51:16.052Z,101344.75
2023-05-19T10:52:27.094Z,101348.47
2023-05-19T10:53:32.950Z,101351.63
2023-05-19T10:54:47.480Z,101343.94
2023-05-19T10:55:57.100Z,101341.56
2023-05-19T10:57:02.567Z,101343.16
2023-05-19T10:58:05.480Z,101340.00
2023-05-19T10:59:09.897Z,101342.41
2023-05-19T11:00:30.444Z,101343.75
2023-05-19T11:01:35.404Z,101344.25
2023-05-19T11:02:42.783Z,101339.44
2023-05-19T11:03:52.396Z,101342.88
2023-05-19T11:04:58.573Z,101341.16
2023-05-19T11:06:20.282Z,101342.44
2023-05-19T11:07:24.923Z,101338.94
2023-05-19T11:08:33.724Z,101340.78
2023-05-19T11:09:43.599Z,101341.06
2023-05-19T11:10:47.327Z,101339.59
2023-05-19T11:11:52.301Z,101337.94
2023-05-19T11:12:58.284Z,101339.22
2023-05-19T11:14:02.543Z,101343.59
2023-05-19T11:15:07.177Z,101342.44
2023-05-19T11:16:10.810Z,101338.81
2023-05-19T11:17:16.933Z,101341.84
2023-05-19T11:18:20.732Z,101339.19
2023-05-19T11:19:28.799Z,101330.22
2023-05-19T11:20:34.968Z,101339.91
2023-05-19T11:21:48.636Z,101322.53
2023-05-19T11:23:09.436Z,101324.81
2023-05-19T11:24:37.233Z,101315.44
2023-05-19T11:25:48.109Z,101318.50
2023-05-19T11:26:53.162Z,101305.25
2023-05-19T11:27:59.323Z,101309.09
2023-05-19T11:29:03.637Z,101296.28
2023-05-19T11:30:15.233Z,101292.50
2023-05-19T11:31:19.488Z,101296.69
2023-05-19T11:32:24.063Z,101290.94
2023-05-19T11:33:28.869Z,101300.78
2023-05-19T11:34:31.866Z,101286.75
2023-05-19T11:35:36.589Z,101288.47
2023-05-19T11:36:40.295Z,101289.50
2023-05-19T11:37:44.438Z,101285.06
2023-05-19T11:38:47.786Z,101280.94
2023-05-19T11:39:51.445Z,101270.72
2023-05-19T11:40:56.055Z,101267.72
2023-05-19T11:41:59.769Z,101269.34
2023-05-19T11:43:03.626Z,101266.09
2023-05-19T11:44:11.352Z,101265.94
2023-05-19T11:45:13.896Z,101268.72
2023-05-19T11:46:18.067Z,101268.50
2023-05-19T11:47:21.627Z,101261.38
2023-05-19T11:48:26.550Z,101260.25
2023-05-19T11:49:29.790Z,101265.91
2023-05-19T11:50:35.429Z,101262.44
2023-05-19T11:51:39.366Z,101261.66
2023-05-19T11:52:48.119Z,101261.13
2023-05-19T11:53:54.465Z,101261.22
2023-05-19T11:55:02.578Z,101266.25
2023-05-19T11:56:07.173Z,101263.09
2023-05-19T11:57:11.419Z,101250.16
2023-05-19T11:58:15.305Z,101254.00
2023-05-19T11:59:17.660Z,101247.59
2023-05-19T12:00:25.765Z,101250.31
2023-05-19T12:01:32.040Z,101248.78
2023-05-19T12:02:36.935Z,101246.91
2023-05-19T12:03:40.870Z,101246.47
2023-05-19T12:04:43.634Z,101226.03
2023-05-19T12:05:50.231Z,101231.13
2023-05-19T12:06:53.108Z,101235.78
2023-05-19T12:07:57.008Z,101239.94
2023-05-19T12:09:00.134Z,101230.41
2023-05-19T12:10:05.366Z,101235.03
2023-05-19T12:11:10.436Z,101230.34
2023-05-19T12:12:15.067Z,101239.75
2023-05-19T12:13:18.813Z,101239.22
2023-05-19T12:14:22.553Z,101233.91
2023-05-19T12:15:26.807Z,101232.00
2023-05-19T12:16:39.982Z,101235.53
2023-05-19T12:17:42.804Z,101228.44
2023-05-19T12:18:46.337Z,101231.72
2023-05-19T12:19:49.829Z,101222.16
2023-05-19T12:20:53.789Z,101231.25
2023-05-19T12:21:56.449Z,101219.84
2023-05-19T12:23:01.729Z,101221.13
2023-05-19T12:24:06.622Z,101222.56
2023-05-19T12:25:11.460Z,101222.34